Time;durP1;ratioP1;P1;durP2;ratioP2;P2;SDS_P1;SDS_P2;PMS_P1;PMS_P2;Temp;Humidity;BMP_temperature;BMP_pressure;BME280_temperature;BME280_humidity;BME280_pressure;Samples;Min_cycle;Max_cycle;Signal;HPM_P1;HPM_P2
2021/08/19 00:01:38;;;;;;;6.57;4.10;;;18.60;99.90;;;;;;4996475;28;20205;-82
2021/08/19 00:04:04;;;;;;;4.20;3.40;;;18.60;99.90;;;;;;4998719;28;20572;-82
2021/08/19 00:06:29;;;;;;;4.47;3.70;;;18.60;99.90;;;;;;4998986;28;20253;-82
2021/08/19 00:08:55;;;;;;;4.20;3.73;;;18.50;99.90;;;;;;4999889;28;20903;-81
2021/08/19 00:11:20;;;;;;;4.90;3.80;;;18.50;99.90;;;;;;4999046;28;20738;-82
2021/08/19 00:13:46;;;;;;;4.40;4.00;;;18.50;99.90;;;;;;4998844;28;20204;-81
2021/08/19 00:16:11;;;;;;;4.00;3.60;;;18.50;99.90;;;;;;5001097;28;20636;-81
2021/08/19 00:18:38;;;;;;;5.47;4.10;;;18.50;99.90;;;;;;4996988;28;20720;-81
2021/08/19 00:21:05;;;;;;;5.30;4.00;;;18.50;99.90;;;;;;4996871;28;20201;-81
2021/08/19 00:23:32;;;;;;;7.97;5.43;;;18.50;99.90;;;;;;4996286;28;20472;-81
2021/08/19 00:25:58;;;;;;;4.67;4.00;;;18.40;99.90;;;;;;4996364;28;20465;-81
2021/08/19 00:28:23;;;;;;;6.63;4.00;;;18.40;99.90;;;;;;4999278;28;20423;-81
2021/08/19 00:30:49;;;;;;;7.60;4.10;;;18.40;99.90;;;;;;4981587;28;20429;-81
2021/08/19 00:33:14;;;;;;;5.00;4.13;;;18.40;99.90;;;;;;4999437;28;20175;-81
2021/08/19 00:35:40;;;;;;;5.90;4.13;;;18.40;99.90;;;;;;4999848;28;20495;-81
2021/08/19 00:38:06;;;;;;;4.87;4.30;;;18.40;99.90;;;;;;5000004;28;20186;-81
2021/08/19 00:40:35;;;;;;;5.23;4.33;;;18.40;99.90;;;;;;4998153;28;20224;-82
2021/08/19 00:43:04;;;;;;;6.20;4.43;;;18.40;99.90;;;;;;5000035;28;20217;-82
2021/08/19 00:45:30;;;;;;;6.73;4.90;;;18.50;99.90;;;;;;4998743;28;20475;-81
2021/08/19 00:47:56;;;;;;;5.97;4.23;;;18.40;99.90;;;;;;4998481;28;20443;-81
2021/08/19 00:50:21;;;;;;;7.80;4.70;;;18.40;99.90;;;;;;5000527;28;20890;-81
2021/08/19 00:52:47;;;;;;;7.47;5.40;;;18.50;99.90;;;;;;4999289;28;20180;-82
2021/08/19 00:55:14;;;;;;;7.00;4.90;;;18.40;99.90;;;;;;4999781;28;20542;-82
2021/08/19 00:57:41;;;;;;;11.10;5.10;;;18.50;99.90;;;;;;4999933;28;20669;-82
2021/08/19 01:00:09;;;;;;;6.93;4.70;;;18.40;99.90;;;;;;4996600;28;20449;-81
2021/08/19 01:02:34;;;;;;;5.90;5.07;;;18.40;99.90;;;;;;4998516;28;20450;-82
2021/08/19 01:05:00;;;;;;;6.57;5.07;;;18.40;99.90;;;;;;4998503;28;20429;-81
2021/08/19 01:07:25;;;;;;;7.20;5.37;;;18.40;99.90;;;;;;4997309;28;20170;-81
2021/08/19 01:09:51;;;;;;;5.90;4.20;;;18.40;99.90;;;;;;4995373;28;20182;-82
2021/08/19 01:12:17;;;;;;;6.90;4.70;;;18.40;99.90;;;;;;4997633;28;20241;-81
2021/08/19 01:14:46;;;;;;;6.13;4.27;;;18.40;99.90;;;;;;4995472;28;20225;-81
2021/08/19 01:17:17;;;;;;;7.40;5.43;;;18.40;99.90;;;;;;4996430;28;20556;-81
2021/08/19 01:19:45;;;;;;;9.87;5.50;;;18.40;99.90;;;;;;4994860;28;20502;-81
2021/08/19 01:22:11;;;;;;;7.90;5.07;;;18.40;99.90;;;;;;4978331;28;20793;-82
2021/08/19 01:24:40;;;;;;;5.47;4.90;;;18.40;99.90;;;;;;4994304;28;20458;-82
2021/08/19 01:27:10;;;;;;;8.93;5.30;;;18.40;99.90;;;;;;4994470;28;20186;-81
2021/08/19 01:29:35;;;;;;;8.10;5.80;;;18.40;99.90;;;;;;4996431;28;20464;-81
2021/08/19 01:32:03;;;;;;;7.60;5.43;;;18.40;99.90;;;;;;4996907;28;20421;-82
2021/08/19 01:34:29;;;;;;;9.53;4.97;;;18.40;99.90;;;;;;4995440;28;20197;-81
2021/08/19 01:36:56;;;;;;;7.30;5.40;;;18.40;99.90;;;;;;4995563;28;20750;-81
2021/08/19 01:39:22;;;;;;;7.00;4.70;;;18.40;99.90;;;;;;5012559;28;20472;-80
2021/08/19 01:41:48;;;;;;;8.10;6.10;;;18.40;99.90;;;;;;4998351;28;20784;-81
2021/08/19 01:44:13;;;;;;;6.70;4.87;;;18.30;99.90;;;;;;4995731;28;20429;-81
2021/08/19 01:46:39;;;;;;;6.33;4.73;;;18.30;99.90;;;;;;4995139;28;20195;-82
2021/08/19 01:49:05;;;;;;;7.10;5.53;;;18.40;99.90;;;;;;4994791;28;20531;-82
2021/08/19 01:51:33;;;;;;;16.10;5.20;;;18.40;99.90;;;;;;4994928;28;21002;-81
2021/08/19 01:53:59;;;;;;;7.50;5.30;;;18.40;99.90;;;;;;4995616;28;20276;-80
2021/08/19 01:56:25;;;;;;;6.70;5.63;;;18.40;99.90;;;;;;4994263;28;21028;-81
2021/08/19 01:58:51;;;;;;;8.20;5.30;;;18.40;99.90;;;;;;4995776;28;20236;-81
2021/08/19 02:01:25;;;;;;;7.93;5.80;;;18.40;99.90;;;;;;4997129;28;20463;-82
2021/08/19 02:03:54;;;;;;;6.60;5.50;;;18.40;99.90;;;;;;4997093;28;20425;-81
2021/08/19 02:06:20;;;;;;;6.47;4.93;;;18.40;99.90;;;;;;4997174;28;20517;-81
2021/08/19 02:08:46;;;;;;;7.03;5.60;;;18.40;99.90;;;;;;4995955;28;20910;-82
2021/08/19 02:11:15;;;;;;;7.60;5.80;;;18.40;99.90;;;;;;4995708;28;20995;-81
2021/08/19 02:13:41;;;;;;;9.17;5.33;;;18.40;99.90;;;;;;4994498;28;20451;-82
2021/08/19 02:16:07;;;;;;;7.00;4.83;;;18.40;99.90;;;;;;4995929;28;20428;-82
2021/08/19 02:18:35;;;;;;;6.07;5.47;;;18.40;99.90;;;;;;4995685;28;20417;-82
2021/08/19 02:21:01;;;;;;;8.07;5.27;;;18.30;99.90;;;;;;4994311;28;20834;-82
2021/08/19 02:23:26;;;;;;;7.43;5.17;;;18.30;99.90;;;;;;4977950;28;20424;-82
2021/08/19 02:25:52;;;;;;;8.00;5.60;;;18.30;99.90;;;;;;4994199;28;20198;-83
2021/08/19 02:28:17;;;;;;;8.17;5.30;;;18.30;99.90;;;;;;4995805;28;20175;-82
2021/08/19 02:30:43;;;;;;;6.83;5.13;;;18.30;99.90;;;;;;4980187;28;20184;-82
2021/08/19 02:33:08;;;;;;;8.43;5.00;;;18.30;99.90;;;;;;4995808;28;20181;-82
2021/08/19 02:35:34;;;;;;;6.00;4.80;;;18.30;99.90;;;;;;4994361;28;20693;-81
2021/08/19 02:38:02;;;;;;;7.67;5.27;;;18.30;99.90;;;;;;4977896;28;20200;-82
2021/08/19 02:40:35;;;;;;;6.60;5.20;;;18.30;99.90;;;;;;4995977;28;20198;-82
2021/08/19 02:43:00;;;;;;;6.00;4.50;;;18.20;99.90;;;;;;4998656;28;20442;-82
2021/08/19 02:45:26;;;;;;;8.93;5.80;;;18.20;99.90;;;;;;4999573;28;20436;-82
2021/08/19 02:47:51;;;;;;;6.57;4.90;;;18.20;99.90;;;;;;5000200;28;20186;-82
2021/08/19 02:50:17;;;;;;;8.27;5.77;;;18.20;99.90;;;;;;5000554;28;20197;-82
2021/08/19 02:52:43;;;;;;;11.43;7.30;;;18.20;99.90;;;;;;4984706;28;20183;-82
2021/08/19 02:55:10;;;;;;;7.20;5.67;;;18.20;99.90;;;;;;5000243;28;20440;-82
2021/08/19 02:57:36;;;;;;;8.10;6.10;;;18.20;99.90;;;;;;5001715;28;20446;-82
2021/08/19 03:00:04;;;;;;;6.57;4.47;;;18.20;99.90;;;;;;5000256;28;20474;-82
2021/08/19 03:02:29;;;;;;;7.90;5.90;;;18.20;99.90;;;;;;4983868;28;20177;-82
2021/08/19 03:04:55;;;;;;;4.87;4.30;;;18.20;99.90;;;;;;4982580;28;20452;-82
2021/08/19 03:07:20;;;;;;;7.90;5.33;;;18.10;99.90;;;;;;4998709;28;20239;-82
2021/08/19 03:09:46;;;;;;;6.60;5.43;;;18.10;99.90;;;;;;4999370;28;20193;-82
2021/08/19 03:12:12;;;;;;;8.97;5.53;;;18.20;99.90;;;;;;4997912;28;20182;-82
2021/08/19 03:14:38;;;;;;;10.67;4.80;;;18.20;99.90;;;;;;4998956;28;20663;-81
2021/08/19 03:17:07;;;;;;;7.33;4.40;;;18.20;99.90;;;;;;4997717;28;20416;-81
2021/08/19 03:19:32;;;;;;;6.93;5.00;;;18.20;99.90;;;;;;4999337;28;20170;-82
2021/08/19 03:22:00;;;;;;;9.37;4.60;;;18.20;99.90;;;;;;4998610;28;20820;-82
2021/08/19 03:24:26;;;;;;;6.90;4.63;;;18.20;99.90;;;;;;4981368;28;20218;-81
2021/08/19 03:26:55;;;;;;;6.33;5.00;;;18.20;99.90;;;;;;4981994;28;20416;-81
2021/08/19 03:29:20;;;;;;;4.57;4.10;;;18.20;99.90;;;;;;4999265;28;20402;-82
2021/08/19 03:31:49;;;;;;;6.30;4.93;;;18.20;99.90;;;;;;4981242;28;20426;-82
2021/08/19 03:34:15;;;;;;;5.03;4.23;;;18.20;99.90;;;;;;4999693;28;20706;-82
2021/08/19 03:36:40;;;;;;;5.70;4.87;;;18.20;99.90;;;;;;4996801;28;20427;-82
2021/08/19 03:39:06;;;;;;;7.23;5.10;;;18.20;99.90;;;;;;4998378;28;20241;-80
2021/08/19 03:41:32;;;;;;;6.37;5.50;;;18.20;99.90;;;;;;4998141;28;20197;-81
2021/08/19 03:43:59;;;;;;;5.87;4.67;;;18.20;99.90;;;;;;4997160;28;20233;-83
2021/08/19 03:46:24;;;;;;;5.60;4.80;;;18.10;99.90;;;;;;4998668;28;20435;-82
2021/08/19 03:48:53;;;;;;;6.40;4.77;;;18.10;99.90;;;;;;4998265;28;20408;-82
2021/08/19 03:51:19;;;;;;;8.20;6.40;;;18.10;99.90;;;;;;4997077;28;20188;-81
2021/08/19 03:53:46;;;;;;;6.57;4.70;;;18.10;99.90;;;;;;4995108;28;20453;-81
2021/08/19 03:56:12;;;;;;;7.33;5.20;;;18.10;99.90;;;;;;4997778;28;20177;-83
2021/08/19 03:58:37;;;;;;;7.70;5.17;;;18.00;99.90;;;;;;4998263;28;20955;-82
2021/08/19 04:01:03;;;;;;;7.77;5.57;;;18.00;99.90;;;;;;4996487;28;20209;-81
2021/08/19 04:03:31;;;;;;;9.23;6.00;;;17.90;99.90;;;;;;4996742;28;20186;-81
2021/08/19 04:05:57;;;;;;;6.10;4.40;;;18.00;99.90;;;;;;4998631;28;20184;-81
2021/08/19 04:08:22;;;;;;;5.70;4.90;;;17.90;99.90;;;;;;4998153;28;20416;-81
2021/08/19 04:10:48;;;;;;;5.83;4.63;;;18.00;99.90;;;;;;4997075;28;20651;-81
2021/08/19 04:13:16;;;;;;;6.40;4.80;;;17.90;99.90;;;;;;4996064;28;20196;-83
2021/08/19 04:15:41;;;;;;;6.67;3.90;;;17.90;99.90;;;;;;4997029;28;20215;-82
2021/08/19 04:18:07;;;;;;;8.90;4.37;;;18.00;99.90;;;;;;4996745;28;20431;-83
2021/08/19 04:20:32;;;;;;;4.83;3.57;;;18.00;99.90;;;;;;4998137;28;20229;-82
2021/08/19 04:22:58;;;;;;;4.53;3.83;;;17.90;99.90;;;;;;4997530;28;20196;-83
2021/08/19 04:25:24;;;;;;;5.60;4.13;;;17.90;99.90;;;;;;4998537;28;20260;-83
2021/08/19 04:27:49;;;;;;;5.10;3.80;;;17.90;99.90;;;;;;4996564;28;20273;-83
2021/08/19 04:30:15;;;;;;;4.13;3.13;;;17.90;99.90;;;;;;4996638;28;20656;-82
2021/08/19 04:32:40;;;;;;;3.80;2.87;;;17.90;99.90;;;;;;4980363;28;20275;-83
2021/08/19 04:35:07;;;;;;;4.87;3.47;;;17.80;99.90;;;;;;4995950;28;20238;-82
2021/08/19 04:37:34;;;;;;;2.73;2.50;;;17.80;99.90;;;;;;4995658;28;20215;-82
2021/08/19 04:39:59;;;;;;;3.60;2.77;;;17.80;99.90;;;;;;4998536;28;20462;-81
2021/08/19 04:42:28;;;;;;;3.93;3.40;;;17.70;99.90;;;;;;4998112;28;20410;-82
2021/08/19 04:44:54;;;;;;;3.20;2.60;;;17.70;99.90;;;;;;4995465;28;20217;-81
2021/08/19 04:47:19;;;;;;;4.83;3.27;;;17.70;99.90;;;;;;4994870;28;20424;-81
2021/08/19 04:49:45;;;;;;;5.13;3.50;;;17.80;99.90;;;;;;4996211;28;20200;-80
2021/08/19 04:52:10;;;;;;;3.87;3.40;;;17.70;99.90;;;;;;4995813;28;20199;-81
2021/08/19 04:54:35;;;;;;;3.47;2.97;;;17.60;99.90;;;;;;4996077;28;20712;-81
2021/08/19 04:57:01;;;;;;;2.93;2.53;;;17.60;99.90;;;;;;4995583;28;20172;-82
2021/08/19 04:59:27;;;;;;;6.07;3.27;;;17.60;99.90;;;;;;4988099;28;20269;-81
2021/08/19 05:01:52;;;;;;;5.57;3.57;;;17.60;99.90;;;;;;4997027;28;20210;-81
2021/08/19 05:04:18;;;;;;;5.03;3.50;;;17.60;99.90;;;;;;4994697;28;20217;-82
2021/08/19 05:06:43;;;;;;;4.40;3.40;;;17.60;99.90;;;;;;4995732;28;20175;-82
2021/08/19 05:09:10;;;;;;;6.30;4.30;;;17.70;99.90;;;;;;4995929;28;20184;-82
2021/08/19 05:11:38;;;;;;;6.80;4.37;;;17.60;99.90;;;;;;4989445;28;20184;-81
2021/08/19 05:14:04;;;;;;;5.37;4.60;;;17.70;99.90;;;;;;4990566;28;20453;-81
2021/08/19 05:16:31;;;;;;;6.27;4.47;;;17.70;99.90;;;;;;4981101;28;20435;-80
2021/08/19 05:18:57;;;;;;;7.40;4.27;;;17.70;99.90;;;;;;4978763;28;20179;-81
2021/08/19 05:21:23;;;;;;;5.57;4.27;;;17.60;99.90;;;;;;4995538;28;20454;-81
2021/08/19 05:23:49;;;;;;;7.53;4.80;;;17.70;99.90;;;;;;4995762;28;20538;-80
2021/08/19 05:26:14;;;;;;;5.37;4.00;;;17.70;99.90;;;;;;4998014;28;20819;-81
2021/08/19 05:28:40;;;;;;;5.33;4.67;;;17.70;99.90;;;;;;4985017;28;20184;-81
2021/08/19 05:31:05;;;;;;;6.77;5.00;;;17.70;99.90;;;;;;4984227;28;20188;-81
2021/08/19 05:33:31;;;;;;;6.60;4.27;;;17.60;99.90;;;;;;4993731;28;20269;-81
2021/08/19 05:35:57;;;;;;;5.70;4.80;;;17.60;99.90;;;;;;4996668;28;20314;-80
2021/08/19 05:38:22;;;;;;;7.17;5.17;;;17.60;99.90;;;;;;4997352;28;20266;-80
2021/08/19 05:40:48;;;;;;;6.83;4.70;;;17.70;99.90;;;;;;4996555;28;20565;-80
2021/08/19 05:43:13;;;;;;;5.70;3.80;;;17.80;99.90;;;;;;4994668;28;20249;-80
2021/08/19 05:45:41;;;;;;;5.90;4.27;;;17.80;99.90;;;;;;4995642;28;20192;-80
2021/08/19 05:48:06;;;;;;;7.43;4.20;;;17.90;99.90;;;;;;4995548;28;20257;-80
2021/08/19 05:50:33;;;;;;;5.33;4.57;;;17.80;99.90;;;;;;4995425;28;20412;-79
2021/08/19 05:52:59;;;;;;;7.50;4.33;;;17.90;99.90;;;;;;4993903;28;20180;-80
2021/08/19 05:55:25;;;;;;;4.77;3.87;;;17.90;99.90;;;;;;4978563;28;20437;-80
2021/08/19 05:57:51;;;;;;;6.10;4.37;;;17.80;99.90;;;;;;4995265;28;20313;-80
2021/08/19 06:00:20;;;;;;;4.93;3.80;;;17.80;99.90;;;;;;4996441;28;20198;-80
2021/08/19 06:02:46;;;;;;;7.23;3.90;;;17.80;99.90;;;;;;4995821;28;20429;-80
2021/08/19 06:05:11;;;;;;;5.47;3.60;;;17.80;99.90;;;;;;4979539;28;21033;-81
2021/08/19 06:07:40;;;;;;;4.70;4.13;;;17.70;99.90;;;;;;4997305;28;20430;-81
2021/08/19 06:10:07;;;;;;;5.60;3.67;;;17.80;99.90;;;;;;4996387;28;20263;-81
2021/08/19 06:12:33;;;;;;;5.83;3.97;;;17.90;99.90;;;;;;4979309;28;20429;-82
2021/08/19 06:14:58;;;;;;;8.67;5.37;;;18.00;99.90;;;;;;4995642;28;20501;-80
2021/08/19 06:17:24;;;;;;;6.20;4.17;;;17.90;99.90;;;;;;4994703;28;20431;-80
2021/08/19 06:19:52;;;;;;;4.37;3.60;;;18.10;99.90;;;;;;4995796;28;20195;-80
2021/08/19 06:22:18;;;;;;;5.63;4.20;;;18.30;99.90;;;;;;4979041;28;20179;-81
2021/08/19 06:24:43;;;;;;;5.13;3.80;;;18.40;99.90;;;;;;4997205;28;20453;-80
2021/08/19 06:27:09;;;;;;;4.43;3.93;;;18.40;99.90;;;;;;4995991;28;20190;-82
2021/08/19 06:29:34;;;;;;;6.07;3.80;;;18.30;99.90;;;;;;4997111;28;20188;-82
2021/08/19 06:32:00;;;;;;;6.67;4.20;;;18.20;99.90;;;;;;4995768;28;20207;-81
2021/08/19 06:34:26;;;;;;;5.90;3.70;;;18.10;99.90;;;;;;4996001;28;20196;-81
2021/08/19 06:36:51;;;;;;;5.93;4.33;;;18.10;99.90;;;;;;4995230;28;20177;-81
2021/08/19 06:39:18;;;;;;;7.40;4.70;;;18.00;99.90;;;;;;4997370;28;20184;-80
2021/08/19 06:41:44;;;;;;;5.87;4.40;;;18.00;99.90;;;;;;4996550;28;20297;-81
2021/08/19 06:44:12;;;;;;;4.80;3.43;;;18.10;99.90;;;;;;4997497;28;20464;-81
2021/08/19 06:46:38;;;;;;;6.87;5.33;;;18.20;99.90;;;;;;4996387;28;20451;-81
2021/08/19 06:49:03;;;;;;;8.10;3.77;;;18.20;99.90;;;;;;4996667;28;20419;-81
2021/08/19 06:51:30;;;;;;;5.63;4.20;;;18.40;99.90;;;;;;4977724;28;20238;-81
2021/08/19 06:53:57;;;;;;;8.50;4.50;;;18.60;99.90;;;;;;4976644;28;20780;-82
2021/08/19 06:56:23;;;;;;;5.83;4.13;;;18.70;99.90;;;;;;4994605;28;20839;-81
2021/08/19 06:58:48;;;;;;;5.80;4.07;;;18.80;99.90;;;;;;4995564;28;20431;-81
2021/08/19 07:01:14;;;;;;;7.57;4.17;;;18.70;99.90;;;;;;4997240;28;20457;-80
2021/08/19 07:03:40;;;;;;;7.27;4.63;;;18.80;99.90;;;;;;4996608;28;20209;-82
2021/08/19 07:06:10;;;;;;;5.23;4.40;;;18.80;99.90;;;;;;4997964;28;20258;-82
2021/08/19 07:08:36;;;;;;;6.80;4.83;;;18.50;99.90;;;;;;4990015;28;20186;-79
2021/08/19 07:11:01;;;;;;;7.10;4.60;;;18.50;99.90;;;;;;4992509;28;20485;-80
2021/08/19 07:13:27;;;;;;;5.40;3.97;;;18.30;99.90;;;;;;4991739;28;20233;-82
2021/08/19 07:15:52;;;;;;;7.87;4.40;;;18.30;99.90;;;;;;4975427;28;20192;-81
2021/08/19 07:18:18;;;;;;;6.20;4.77;;;18.20;99.90;;;;;;4996002;28;20199;-81
2021/08/19 07:20:44;;;;;;;5.70;4.07;;;18.10;99.90;;;;;;4996436;28;20214;-82
2021/08/19 07:23:09;;;;;;;9.97;4.23;;;18.20;99.90;;;;;;4995649;28;20477;-80
2021/08/19 07:25:35;;;;;;;6.30;3.57;;;18.20;99.90;;;;;;4996593;28;20293;-83
2021/08/19 07:28:00;;;;;;;4.70;3.67;;;18.10;99.90;;;;;;4998144;28;20268;-81
2021/08/19 07:30:26;;;;;;;5.73;3.93;;;18.20;99.90;;;;;;4999598;28;20217;-81
2021/08/19 07:32:52;;;;;;;7.00;4.37;;;18.20;99.90;;;;;;5000380;28;20194;-80
2021/08/19 07:35:17;;;;;;;6.20;4.63;;;18.10;99.90;;;;;;4998546;28;20213;-81
2021/08/19 07:37:48;;;;;;;11.53;5.40;;;18.10;99.90;;;;;;4998054;28;20564;-80
2021/08/19 07:40:16;;;;;;;5.97;4.30;;;18.20;99.90;;;;;;4997317;28;20236;-82
2021/08/19 07:42:43;;;;;;;7.03;4.97;;;18.20;99.90;;;;;;4997871;28;20511;-82
2021/08/19 07:45:09;;;;;;;9.03;4.23;;;18.20;99.90;;;;;;4999384;28;20542;-79
2021/08/19 07:47:35;;;;;;;8.60;3.77;;;18.10;99.90;;;;;;4999865;28;20499;-80
2021/08/19 07:50:01;;;;;;;7.57;4.50;;;18.10;99.90;;;;;;4999075;28;20521;-79
2021/08/19 07:52:27;;;;;;;6.63;4.83;;;18.00;99.90;;;;;;4999356;28;20245;-81
2021/08/19 07:54:53;;;;;;;5.57;4.33;;;17.90;99.90;;;;;;4980600;28;20463;-82
2021/08/19 07:57:19;;;;;;;5.37;4.47;;;18.00;99.90;;;;;;4999070;28;20994;-82
2021/08/19 07:59:44;;;;;;;4.90;4.03;;;18.10;99.90;;;;;;4997432;28;20945;-81
2021/08/19 08:02:10;;;;;;;10.93;4.20;;;18.10;99.90;;;;;;4965498;28;20222;-81
2021/08/19 08:04:35;;;;;;;6.10;4.43;;;18.20;99.90;;;;;;4997346;28;20201;-81
2021/08/19 08:07:01;;;;;;;5.73;3.63;;;18.20;99.90;;;;;;4980501;28;20213;-80
2021/08/19 08:09:27;;;;;;;5.93;4.13;;;18.40;99.90;;;;;;4997052;28;20192;-79
2021/08/19 08:11:53;;;;;;;4.67;4.07;;;18.50;99.90;;;;;;4997105;28;20447;-81
2021/08/19 08:14:19;;;;;;;5.00;4.30;;;18.60;99.90;;;;;;4979529;28;20769;-80
2021/08/19 08:16:44;;;;;;;6.77;4.20;;;18.60;99.90;;;;;;4997306;28;20488;-82
2021/08/19 08:19:10;;;;;;;4.87;3.93;;;18.50;99.90;;;;;;4998737;28;20216;-82
2021/08/19 08:21:38;;;;;;;7.83;3.47;;;18.50;99.90;;;;;;4997388;28;20209;-81
2021/08/19 08:24:04;;;;;;;6.37;4.73;;;18.50;99.90;;;;;;4996031;28;20500;-81
2021/08/19 08:26:30;;;;;;;6.50;3.93;;;18.50;99.90;;;;;;4981328;28;20478;-82
2021/08/19 08:28:57;;;;;;;7.20;4.23;;;18.70;99.90;;;;;;4998336;28;20520;-82
2021/08/19 08:31:23;;;;;;;6.90;4.83;;;18.80;99.90;;;;;;4998184;28;20186;-82
2021/08/19 08:33:49;;;;;;;5.67;4.30;;;18.70;99.90;;;;;;4998752;28;20525;-82
2021/08/19 08:36:15;;;;;;;5.00;3.70;;;18.70;99.90;;;;;;4997801;28;20177;-82
2021/08/19 08:38:41;;;;;;;9.63;4.23;;;18.70;99.90;;;;;;4998077;28;20465;-82
2021/08/19 08:41:07;;;;;;;4.93;3.40;;;18.70;99.90;;;;;;4996876;28;20203;-81
2021/08/19 08:43:34;;;;;;;7.47;4.23;;;18.80;99.90;;;;;;4996606;28;20453;-81
2021/08/19 08:46:01;;;;;;;4.90;3.93;;;18.70;99.90;;;;;;4996870;28;20413;-82
2021/08/19 08:48:27;;;;;;;5.37;3.87;;;18.60;99.90;;;;;;4996297;28;20451;-82
2021/08/19 08:50:56;;;;;;;6.20;4.47;;;18.60;99.90;;;;;;4978993;28;20455;-82
2021/08/19 08:53:22;;;;;;;6.17;4.27;;;18.60;99.90;;;;;;5002710;28;20489;-81
2021/08/19 08:55:49;;;;;;;6.90;4.10;;;18.70;99.90;;;;;;4981255;28;20433;-79
2021/08/19 08:58:15;;;;;;;6.70;4.97;;;18.80;99.90;;;;;;5014070;28;20172;-79
2021/08/19 09:00:46;;;;;;;6.40;4.13;;;18.80;99.90;;;;;;4999110;28;20566;-80
2021/08/19 09:03:17;;;;;;;7.27;4.50;;;18.70;99.90;;;;;;4995268;28;20414;-80
2021/08/19 09:05:50;;;;;;;5.63;4.17;;;18.70;99.90;;;;;;4997574;28;20775;-81
2021/08/19 09:08:22;;;;;;;5.50;4.50;;;18.70;99.90;;;;;;4996842;28;20402;-80
2021/08/19 09:10:49;;;;;;;4.47;3.47;;;18.80;99.90;;;;;;4994896;28;20517;-79
2021/08/19 09:13:18;;;;;;;6.67;4.43;;;18.80;99.90;;;;;;4994735;28;20439;-79
2021/08/19 09:15:45;;;;;;;6.27;4.30;;;18.90;99.90;;;;;;4997774;28;20426;-79
2021/08/19 09:18:12;;;;;;;7.70;4.37;;;19.00;99.90;;;;;;4995404;28;20517;-80
2021/08/19 09:20:43;;;;;;;5.60;4.03;;;19.00;99.90;;;;;;4996618;28;20453;-80
2021/08/19 09:23:15;;;;;;;4.47;3.60;;;19.10;99.90;;;;;;4995633;28;20421;-81
2021/08/19 09:25:43;;;;;;;6.30;3.70;;;19.10;99.90;;;;;;4995194;28;20448;-80
2021/08/19 09:28:16;;;;;;;5.87;4.93;;;19.20;99.90;;;;;;4994429;28;20483;-80
2021/08/19 09:31:05;;;;;;;5.93;3.97;;;19.20;99.90;;;;;;4994378;28;20418;-79
2021/08/19 09:33:32;;;;;;;6.50;3.83;;;19.30;99.90;;;;;;4998079;28;20796;-80
2021/08/19 09:36:01;;;;;;;5.80;4.30;;;19.30;99.90;;;;;;4997011;28;20426;-81
2021/08/19 09:38:41;;;;;;;4.03;2.90;;;19.20;99.90;;;;;;4994454;28;20480;-80
2021/08/19 09:41:17;;;;;;;3.97;3.33;;;19.30;99.90;;;;;;4996834;28;20971;-80
2021/08/19 09:43:54;;;;;;;5.60;4.20;;;19.30;99.90;;;;;;4995501;28;20889;-80
2021/08/19 09:46:28;;;;;;;6.80;4.87;;;19.20;99.90;;;;;;4996178;28;20512;-80
2021/08/19 09:48:54;;;;;;;6.60;4.17;;;19.20;99.90;;;;;;4996525;28;20421;-80
2021/08/19 09:51:24;;;;;;;5.70;4.83;;;19.10;99.90;;;;;;4995964;28;20411;-79
2021/08/19 09:53:52;;;;;;;5.20;4.40;;;19.10;99.90;;;;;;4996575;28;20542;-80
2021/08/19 09:56:28;;;;;;;5.30;4.30;;;19.00;99.90;;;;;;4998095;28;20416;-80
2021/08/19 09:58:55;;;;;;;6.27;4.40;;;18.90;99.90;;;;;;4995663;28;20823;-79
2021/08/19 10:01:23;;;;;;;8.03;5.97;;;18.80;99.90;;;;;;4994590;28;20481;-80
2021/08/19 10:03:49;;;;;;;5.30;3.80;;;18.90;99.90;;;;;;4979206;28;20537;-80
2021/08/19 10:06:15;;;;;;;6.97;5.00;;;18.90;99.90;;;;;;4991599;28;20532;-80
2021/08/19 10:08:40;;;;;;;5.70;3.80;;;19.00;99.90;;;;;;4976050;28;20423;-79
2021/08/19 10:11:10;;;;;;;5.23;3.93;;;19.10;99.90;;;;;;4975048;28;20695;-79
2021/08/19 10:13:37;;;;;;;5.90;4.30;;;19.10;99.90;;;;;;4992840;28;20210;-79
2021/08/19 10:16:03;;;;;;;3.73;3.30;;;19.10;99.90;;;;;;4996746;28;20897;-80
2021/08/19 10:18:33;;;;;;;6.50;4.23;;;19.20;99.90;;;;;;4995635;28;20445;-80
2021/08/19 10:21:19;;;;;;;9.43;3.30;;;19.40;99.90;;;;;;4996385;28;20458;-82
2021/08/19 10:23:48;;;;;;;6.00;3.43;;;19.40;99.90;;;;;;4996370;28;20446;-79
2021/08/19 10:26:21;;;;;;;5.43;3.90;;;19.50;99.90;;;;;;4995252;28;20444;-79
2021/08/19 10:28:50;;;;;;;6.60;3.80;;;19.70;99.90;;;;;;4995478;28;20420;-80
2021/08/19 10:31:42;;;;;;;7.57;4.03;;;19.70;99.90;;;;;;4994530;28;20414;-80
2021/08/19 10:34:09;;;;;;;3.87;3.00;;;19.80;99.90;;;;;;4986951;28;20444;-81
2021/08/19 10:36:45;;;;;;;5.43;4.23;;;19.80;99.90;;;;;;4995310;28;20410;-80
2021/08/19 10:39:20;;;;;;;6.03;3.40;;;19.70;99.90;;;;;;4994824;28;20402;-79
2021/08/19 10:41:47;;;;;;;3.97;3.40;;;19.80;99.90;;;;;;4993574;28;20485;-79
2021/08/19 10:44:13;;;;;;;6.07;4.33;;;19.80;99.90;;;;;;4994245;28;20441;-79
2021/08/19 10:46:41;;;;;;;7.20;4.80;;;19.90;99.90;;;;;;4994049;28;20956;-80
2021/08/19 10:49:07;;;;;;;5.47;4.10;;;19.90;99.90;;;;;;4993114;28;20431;-79
2021/08/19 10:51:32;;;;;;;7.80;6.07;;;20.00;99.90;;;;;;4993361;28;20465;-80
2021/08/19 10:53:58;;;;;;;8.10;5.67;;;19.90;99.90;;;;;;4993112;28;20446;-80
2021/08/19 10:56:43;;;;;;;7.53;4.30;;;19.90;99.90;;;;;;4993155;28;20193;-79
2021/08/19 10:59:31;;;;;;;7.30;4.57;;;19.70;99.90;;;;;;4973776;28;20199;-78
2021/08/19 11:01:59;;;;;;;4.80;4.10;;;19.60;99.90;;;;;;4990083;28;20511;-80
2021/08/19 11:04:44;;;;;;;6.20;4.47;;;19.60;99.90;;;;;;4996519;28;20960;-80
2021/08/19 11:07:10;;;;;;;7.53;4.87;;;19.80;99.90;;;;;;4996754;28;20937;-80
2021/08/19 11:09:37;;;;;;;10.40;4.87;;;19.90;99.90;;;;;;4995772;28;20426;-79
2021/08/19 11:12:04;;;;;;;8.20;5.30;;;20.00;99.90;;;;;;4995628;28;20183;-80
2021/08/19 11:14:30;;;;;;;4.80;3.90;;;20.20;99.90;;;;;;4995347;28;20470;-78
2021/08/19 11:16:58;;;;;;;7.53;5.60;;;20.20;99.90;;;;;;4997693;28;20428;-80
2021/08/19 11:19:29;;;;;;;6.53;5.00;;;20.30;99.90;;;;;;4997379;28;20428;-79
2021/08/19 11:22:01;;;;;;;8.20;5.60;;;20.20;99.90;;;;;;4996923;28;20450;-80
2021/08/19 11:24:29;;;;;;;7.43;4.67;;;20.30;99.90;;;;;;4997867;28;20442;-78
2021/08/19 11:27:09;;;;;;;6.10;4.17;;;20.20;99.90;;;;;;4999352;28;20920;-79
2021/08/19 11:29:42;;;;;;;5.40;3.90;;;20.20;99.90;;;;;;4993531;28;21020;-80
2021/08/19 11:32:09;;;;;;;3.37;3.07;;;20.40;99.90;;;;;;5000239;28;20419;-79
2021/08/19 11:34:36;;;;;;;5.77;4.47;;;20.50;99.90;;;;;;4999470;28;20444;-79
2021/08/19 11:37:02;;;;;;;5.77;4.00;;;20.70;99.90;;;;;;4981938;28;20908;-79
2021/08/19 11:39:29;;;;;;;4.60;3.87;;;20.80;99.90;;;;;;4979905;28;20414;-80
2021/08/19 11:42:04;;;;;;;3.60;2.97;;;21.00;99.90;;;;;;4981593;28;20977;-79
2021/08/19 11:44:31;;;;;;;3.70;3.17;;;20.70;99.90;;;;;;4978801;28;20457;-80
2021/08/19 11:47:05;;;;;;;6.40;3.60;;;20.60;99.90;;;;;;4978905;28;20412;-82
2021/08/19 11:49:31;;;;;;;6.20;3.80;;;20.70;99.90;;;;;;4977915;28;20413;-80
2021/08/19 11:52:02;;;;;;;5.97;4.03;;;20.60;99.90;;;;;;4978677;28;20749;-78
2021/08/19 11:54:43;;;;;;;5.57;3.73;;;20.80;99.90;;;;;;4976058;28;20440;-79
2021/08/19 11:57:20;;;;;;;5.93;3.67;;;20.90;99.90;;;;;;4977943;28;20413;-77
2021/08/19 11:59:55;;;;;;;5.67;4.00;;;20.90;99.90;;;;;;4977619;28;20505;-79
2021/08/19 12:02:21;;;;;;;6.73;4.20;;;20.70;99.90;;;;;;4975935;28;20417;-80
2021/08/19 12:04:59;;;;;;;5.13;4.43;;;20.70;99.90;;;;;;4984993;28;20458;-80
2021/08/19 12:07:25;;;;;;;5.53;4.20;;;20.70;99.90;;;;;;4986732;28;20367;-80
2021/08/19 12:09:54;;;;;;;5.63;3.73;;;20.90;99.90;;;;;;4988956;28;20423;-81
2021/08/19 12:12:25;;;;;;;5.60;3.90;;;20.80;99.90;;;;;;4979177;28;20253;-80
2021/08/19 12:14:53;;;;;;;4.80;3.57;;;20.70;99.90;;;;;;4990963;28;20452;-81
2021/08/19 12:17:19;;;;;;;5.33;3.67;;;20.60;99.90;;;;;;4998429;28;20483;-81
2021/08/19 12:19:45;;;;;;;5.43;3.70;;;20.70;99.90;;;;;;4991936;28;20425;-81
2021/08/19 12:22:11;;;;;;;7.13;3.60;;;20.80;99.90;;;;;;4998180;28;20501;-80
2021/08/19 12:24:41;;;;;;;8.17;3.70;;;20.80;99.90;;;;;;4995999;28;21432;-81
2021/08/19 12:27:10;;;;;;;4.10;3.40;;;20.70;99.90;;;;;;4988839;28;20512;-81
2021/08/19 12:29:52;;;;;;;5.47;3.97;;;20.50;99.90;;;;;;4997392;28;20704;-81
2021/08/19 12:32:25;;;;;;;5.90;4.27;;;20.60;99.90;;;;;;4998182;28;20412;-81
2021/08/19 12:34:56;;;;;;;3.83;3.43;;;20.70;99.90;;;;;;4996009;28;20431;-81
2021/08/19 12:37:21;;;;;;;3.70;3.03;;;20.70;99.90;;;;;;4983764;28;20462;-81
2021/08/19 12:39:50;;;;;;;5.70;3.23;;;20.60;99.90;;;;;;4977143;28;20440;-81
2021/08/19 12:42:15;;;;;;;6.10;4.10;;;20.50;99.90;;;;;;4997018;28;20183;-82
2021/08/19 12:45:00;;;;;;;4.30;3.13;;;20.50;99.90;;;;;;4977522;28;20896;-81
2021/08/19 12:47:34;;;;;;;5.03;3.50;;;20.60;99.90;;;;;;4998004;28;20180;-81